createdAt,value
2022-08-09T00:01:54.812Z,59.17
2022-08-09T00:04:34.347Z,59.27
2022-08-09T00:07:07.540Z,58.47
2022-08-09T00:09:39.793Z,58.05
2022-08-09T00:12:08.299Z,58.19
2022-08-09T00:14:38.517Z,58.28
2022-08-09T00:18:04.629Z,59.23
2022-08-09T00:20:01.213Z,58.45
2022-08-09T00:22:35.310Z,58.62
2022-08-09T00:25:08.349Z,57.92
2022-08-09T00:27:42.968Z,57.90
2022-08-09T00:30:24.837Z,58.74
2022-08-09T00:32:59.268Z,57.79
2022-08-09T00:35:30.068Z,58.55
2022-08-09T00:38:12.947Z,57.64
2022-08-09T00:40:40.807Z,57.61
2022-08-09T00:44:24.764Z,57.45
2022-08-09T00:46:28.401Z,56.76
2022-08-09T00:49:00.277Z,56.76
2022-08-09T00:51:33.840Z,56.92
2022-08-09T00:54:10.732Z,57.32
2022-08-09T00:56:38.665Z,57.21
2022-08-09T00:59:09.763Z,57.59
2022-08-09T01:01:44.693Z,57.20
2022-08-09T01:04:25.990Z,56.49
2022-08-09T01:07:19.393Z,57.80
2022-08-09T01:10:31.018Z,57.50
2022-08-09T01:13:31.281Z,57.60
2022-08-09T01:16:12.941Z,58.24
2022-08-09T01:18:47.398Z,57.44
2022-08-09T01:21:51.159Z,57.52
2022-08-09T01:24:27.072Z,58.33
2022-08-09T01:27:08.794Z,56.95
2022-08-09T01:29:56.229Z,57.73
2022-08-09T01:32:34.228Z,58.38
2022-08-09T01:35:38.571Z,57.78
2022-08-09T01:38:16.181Z,58.27
2022-08-09T01:41:03.151Z,58.13
2022-08-09T01:43:51.137Z,58.26
2022-08-09T01:46:42.816Z,58.47
2022-08-09T01:49:18.270Z,58.78
2022-08-09T01:51:53.484Z,58.65
2022-08-09T01:54:32.801Z,58.85
2022-08-09T01:57:09.810Z,58.20
2022-08-09T01:59:51.467Z,58.03
2022-08-09T02:02:29.953Z,57.97
2022-08-09T02:09:59.513Z,59.48
2022-08-09T02:12:48.164Z,59.27
2022-08-09T02:15:49.460Z,59.96
2022-08-09T02:18:34.471Z,59.87
2022-08-09T02:21:24.775Z,59.93
2022-08-09T02:24:12.964Z,59.56
2022-08-09T02:27:19.120Z,59.00
2022-08-09T02:31:06.210Z,58.80
2022-08-09T02:34:06.650Z,59.63
2022-08-09T02:37:04.621Z,59.15
2022-08-09T02:40:05.274Z,58.98
2022-08-09T02:42:55.594Z,58.88
2022-08-09T02:45:40.774Z,60.30
2022-08-09T02:48:30.818Z,60.39
2022-08-09T02:51:12.422Z,59.32
2022-08-09T02:54:03.148Z,59.75
2022-08-09T02:57:23.457Z,59.62
2022-08-09T03:00:26.058Z,60.26
2022-08-09T03:03:37.174Z,60.55
2022-08-09T03:06:49.235Z,60.09
2022-08-09T03:10:17.912Z,59.99
2022-08-09T03:12:35.740Z,59.71
2022-08-09T03:15:12.765Z,59.75
2022-08-09T03:17:57.769Z,59.38
2022-08-09T03:20:45.136Z,59.74
2022-08-09T03:23:32.215Z,60.80
2022-08-09T03:26:19.306Z,60.89
2022-08-09T03:29:00.742Z,61.12
2022-08-09T03:32:04.847Z,62.41
2022-08-09T03:36:14.021Z,62.20
2022-08-09T03:38:42.789Z,62.73
2022-08-09T03:41:46.084Z,63.50
2022-08-09T03:44:49.826Z,63.66
2022-08-09T03:48:51.178Z,63.42
2022-08-09T03:51:57.486Z,62.88
2022-08-09T03:54:38.898Z,62.91
2022-08-09T03:58:09.704Z,62.93
2022-08-09T04:00:57.470Z,63.26
2022-08-09T04:04:02.227Z,63.23
2022-08-09T04:06:55.515Z,63.63
2022-08-09T04:10:07.315Z,63.95
2022-08-09T04:13:44.923Z,65.57
2022-08-09T04:16:20.058Z,64.78
2022-08-09T04:19:43.078Z,65.05
2022-08-09T04:22:47.564Z,64.84
2022-08-09T04:25:53.079Z,65.44
2022-08-09T04:28:42.500Z,65.52
2022-08-09T04:31:37.610Z,65.92
2022-08-09T04:34:38.675Z,65.58
2022-08-09T04:37:20.337Z,65.10
2022-08-09T04:40:00.377Z,65.02
2022-08-09T04:42:35.605Z,64.95
2022-08-09T04:45:11.854Z,64.49
2022-08-09T04:47:58.835Z,64.39
2022-08-09T04:50:51.231Z,64.10
2022-08-09T04:53:25.489Z,64.51
2022-08-09T04:56:17.183Z,64.65
2022-08-09T04:59:06.072Z,65.77
2022-08-09T05:02:16.509Z,67.58
2022-08-09T05:05:31.543Z,67.38
2022-08-09T05:11:14.924Z,67.64
2022-08-09T05:18:39.658Z,66.72
2022-08-09T05:20:29.969Z,67.27
2022-08-09T05:23:54.082Z,65.85
2022-08-09T05:30:32.759Z,64.92
2022-08-09T05:33:34.223Z,63.58
2022-08-09T05:53:00.057Z,60.63
2022-08-09T06:00:11.173Z,59.97
2022-08-09T06:08:31.246Z,59.36
2022-08-09T06:18:09.088Z,57.20
2022-08-09T06:20:39.342Z,58.05
2022-08-09T06:23:06.899Z,58.45
2022-08-09T06:25:39.707Z,58.11
2022-08-09T06:28:10.945Z,57.83
2022-08-09T06:30:43.299Z,56.00
2022-08-09T06:33:30.138Z,54.09
2022-08-09T06:35:58.902Z,50.15
2022-08-09T06:38:32.161Z,49.41
2022-08-09T06:41:18.636Z,49.78
2022-08-09T06:43:48.182Z,49.32
2022-08-09T06:46:39.675Z,46.29
2022-08-09T06:50:12.252Z,44.30
2022-08-09T06:52:18.418Z,43.77
2022-08-09T06:54:46.234Z,44.67
2022-08-09T06:57:16.187Z,43.42
2022-08-09T07:00:52.036Z,42.20
2022-08-09T07:02:36.834Z,44.72
2022-08-09T07:05:07.656Z,43.32
2022-08-09T07:07:59.922Z,42.44
2022-08-09T07:10:31.195Z,40.55
2022-08-09T07:13:00.421Z,42.79
2022-08-09T07:16:35.356Z,45.17
2022-08-09T07:18:34.135Z,39.98
2022-08-09T07:21:01.881Z,42.04
2022-08-09T07:23:29.812Z,44.02
2022-08-09T07:26:04.313Z,38.61
2022-08-09T07:28:34.633Z,40.36
2022-08-09T07:31:04.975Z,40.19
2022-08-09T07:34:01.574Z,35.63
2022-08-09T07:36:32.471Z,34.30
2022-08-09T07:39:02.224Z,37.69
2022-08-09T07:41:57.217Z,41.69
2022-08-09T07:44:52.128Z,38.06
2022-08-09T07:47:18.780Z,37.57
2022-08-09T07:50:04.661Z,37.72
2022-08-09T07:52:33.876Z,37.90
2022-08-09T07:55:09.620Z,36.85
2022-08-09T07:57:47.084Z,40.85
2022-08-09T08:00:20.858Z,41.46
2022-08-09T08:03:04.985Z,40.73
2022-08-09T08:05:39.178Z,38.75
2022-08-09T08:09:02.584Z,35.96
2022-08-09T08:12:11.194Z,41.12
2022-08-09T08:14:00.184Z,40.70
2022-08-09T08:16:31.904Z,38.67
2022-08-09T08:19:02.786Z,36.64
2022-08-09T08:21:31.400Z,39.99
2022-08-09T08:24:11.851Z,35.68
2022-08-09T08:26:54.636Z,37.55
2022-08-09T08:29:28.124Z,38.47
2022-08-09T08:32:03.927Z,36.55
2022-08-09T08:34:36.614Z,35.86
2022-08-09T08:37:05.261Z,32.29
2022-08-09T08:39:39.991Z,35.62
2022-08-09T08:42:11.974Z,34.44
2022-08-09T08:44:42.019Z,38.28
2022-08-09T08:47:14.904Z,34.02
2022-08-09T08:49:48.611Z,33.18
2022-08-09T08:52:57.566Z,33.61
2022-08-09T08:55:19.159Z,33.08
2022-08-09T08:57:57.595Z,33.92
2022-08-09T09:00:34.625Z,33.65
2022-08-09T09:03:08.708Z,29.51
2022-08-09T09:44:45.725Z,31.67
2022-08-09T09:51:38.488Z,34.18
2022-08-09T10:03:57.003Z,36.26
2022-08-09T10:08:01.023Z,39.08
2022-08-09T10:10:40.816Z,38.91
2022-08-09T10:13:43.172Z,41.27
2022-08-09T10:20:04.751Z,38.44
2022-08-09T10:22:50.933Z,39.00
2022-08-09T10:29:21.385Z,39.31
2022-08-09T10:38:56.442Z,37.77
2022-08-09T10:45:17.865Z,40.05
2022-08-09T10:48:32.971Z,44.05
2022-08-09T10:51:58.385Z,41.49
2022-08-09T10:54:36.257Z,48.10
2022-08-09T12:07:03.154Z,40.87
2022-08-09T12:10:38.446Z,44.57
2022-08-09T12:14:08.502Z,44.43
2022-08-09T12:25:37.309Z,43.06
2022-08-09T12:56:12.519Z,40.78
2022-08-09T13:41:50.640Z,42.60
2022-08-09T13:52:04.980Z,41.32
2022-08-09T13:55:00.820Z,41.10
2022-08-09T13:58:00.422Z,40.18
2022-08-09T14:00:50.618Z,41.01
2022-08-09T14:04:01.873Z,40.29
2022-08-09T14:07:03.659Z,42.52
2022-08-09T14:09:55.642Z,39.32
2022-08-09T14:16:17.476Z,39.83
2022-08-09T14:19:14.963Z,40.02
2022-08-09T14:22:19.931Z,39.64
2022-08-09T14:25:42.695Z,39.39
2022-08-09T14:28:33.074Z,41.52
2022-08-09T14:32:10.761Z,40.60
2022-08-09T14:34:55.743Z,39.74
2022-08-09T14:38:02.785Z,40.84
2022-08-09T14:41:34.758Z,39.55
2022-08-09T14:47:44.641Z,41.22
2022-08-09T14:50:20.232Z,38.89
2022-08-09T14:52:55.273Z,39.67
2022-08-09T14:55:49.995Z,39.53
2022-08-09T14:58:24.276Z,38.68
2022-08-09T15:01:17.169Z,40.56
2022-08-09T15:04:01.404Z,39.77
2022-08-09T15:06:57.167Z,38.64
2022-08-09T15:10:04.578Z,39.45
2022-08-09T15:12:49.854Z,39.57
2022-08-09T15:15:21.746Z,39.09
2022-08-09T15:18:04.941Z,39.24
2022-08-09T15:25:38.928Z,39.05
2022-08-09T15:37:37.685Z,40.74
2022-08-09T15:40:25.293Z,38.81
2022-08-09T15:43:09.490Z,39.80
2022-08-09T15:46:28.313Z,38.27
2022-08-09T15:48:39.636Z,38.24
2022-08-09T15:51:44.726Z,38.67
2022-08-09T15:54:20.105Z,38.33
2022-08-09T15:56:52.785Z,38.57
2022-08-09T15:59:23.465Z,39.53
2022-08-09T16:11:04.153Z,39.03
2022-08-09T16:14:02.930Z,38.42
2022-08-09T16:16:28.189Z,38.54
2022-08-09T16:27:36.029Z,38.91
2022-08-09T16:30:15.318Z,40.04
2022-08-09T16:33:11.743Z,39.74
2022-08-09T16:58:21.125Z,41.79
2022-08-09T17:10:46.687Z,41.00
2022-08-09T17:13:14.695Z,41.55
2022-08-09T17:16:00.013Z,40.58
2022-08-09T17:23:14.758Z,41.58
2022-08-09T17:25:52.953Z,42.34
2022-08-09T17:28:29.847Z,42.54
2022-08-09T17:31:38.836Z,41.24
2022-08-09T17:35:01.365Z,43.25
2022-08-09T17:37:19.263Z,42.35
2022-08-09T17:40:31.977Z,41.95
2022-08-09T17:47:18.928Z,45.09
2022-08-09T17:49:55.706Z,44.51
2022-08-09T17:53:34.820Z,46.89
2022-08-09T18:44:39.633Z,47.44
2022-08-09T19:01:32.178Z,53.23
2022-08-09T20:08:06.093Z,56.83
2022-08-09T20:16:37.555Z,56.96
2022-08-09T20:19:03.683Z,57.29
2022-08-09T20:21:54.753Z,58.09
2022-08-09T20:24:29.424Z,58.71
2022-08-09T20:27:08.414Z,59.65
2022-08-09T20:29:40.954Z,59.31
2022-08-09T20:32:31.340Z,60.07
2022-08-09T20:40:14.869Z,60.23
2022-08-09T20:42:53.280Z,60.85
2022-08-09T20:45:59.897Z,61.47
2022-08-09T20:48:21.046Z,61.71
2022-08-09T20:50:55.809Z,62.13
2022-08-09T20:53:37.173Z,62.89
2022-08-09T20:56:26.434Z,63.27
2022-08-09T20:58:58.810Z,64.67
2022-08-09T21:01:50.500Z,62.50
2022-08-09T21:05:53.508Z,64.59
2022-08-09T21:07:12.802Z,63.81
2022-08-09T21:09:45.597Z,63.53
2022-08-09T21:14:48.292Z,64.72
2022-08-09T21:18:22.166Z,65.07
2022-08-09T21:20:23.030Z,65.53
2022-08-09T21:22:54.093Z,65.87
2022-08-09T21:25:43.990Z,64.96
2022-08-09T21:28:34.771Z,64.54
2022-08-09T21:31:16.111Z,64.57
2022-08-09T21:33:50.821Z,64.72
2022-08-09T21:36:25.799Z,64.54
2022-08-09T21:38:57.481Z,64.25
2022-08-09T21:42:05.774Z,64.26
2022-08-09T21:44:33.321Z,65.61
2022-08-09T21:47:08.662Z,66.76
2022-08-09T21:49:39.779Z,65.70
2022-08-09T21:52:16.620Z,65.67
2022-08-09T21:55:03.047Z,66.76
2022-08-09T21:57:38.641Z,66.13
2022-08-09T22:00:33.676Z,66.21
2022-08-09T22:03:06.948Z,65.72
2022-08-09T22:05:42.224Z,65.46
2022-08-09T22:08:14.955Z,66.00
2022-08-09T22:11:50.136Z,66.44
2022-08-09T22:13:43.203Z,66.38
2022-08-09T22:16:12.081Z,66.72
2022-08-09T22:18:44.209Z,66.79
2022-08-09T22:21:27.377Z,66.40
2022-08-09T22:24:17.207Z,67.04
2022-08-09T22:26:51.726Z,66.42
2022-08-09T22:29:28.834Z,65.08
2022-08-09T22:32:02.258Z,67.78
2022-08-09T22:34:30.038Z,65.09
2022-08-09T22:36:58.930Z,64.16
2022-08-09T22:39:57.121Z,63.86
2022-08-09T22:42:20.902Z,64.67
2022-08-09T22:45:02.490Z,63.52
2022-08-09T22:48:34.070Z,63.76
2022-08-09T22:50:29.756Z,64.98
2022-08-09T22:52:58.717Z,64.63
2022-08-09T22:55:39.688Z,65.28
2022-08-09T22:58:20.365Z,66.38
2022-08-09T23:01:05.635Z,67.16
2022-08-09T23:04:03.531Z,65.82
2022-08-09T23:06:35.753Z,68.02
2022-08-09T23:09:07.001Z,68.33
2022-08-09T23:11:34.994Z,68.77
2022-08-09T23:14:10.081Z,69.22
2022-08-09T23:16:44.881Z,70.05
2022-08-09T23:19:13.169Z,74.91
2022-08-09T23:21:40.858Z,76.45
2022-08-09T23:24:08.656Z,77.49
2022-08-09T23:26:36.985Z,77.18
2022-08-09T23:29:11.093Z,76.94
2022-08-09T23:31:38.565Z,75.68
2022-08-09T23:34:07.003Z,75.96
2022-08-09T23:36:35.313Z,77.97
2022-08-09T23:39:07.607Z,75.48
2022-08-09T23:41:35.782Z,77.70
2022-08-09T23:44:04.239Z,70.53
2022-08-09T23:46:32.279Z,73.41
2022-08-09T23:49:00.612Z,73.88
2022-08-09T23:51:28.670Z,75.33
2022-08-09T23:54:02.401Z,76.33
2022-08-09T23:56:52.508Z,76.39
2022-08-09T23:59:21.219Z,79.54
